Nearby METAR Reports

 

EIDW - Dublin Airport, Ireland
Distance from station: ENE 79km
Updated: 24/08/2019 20:30
Clear
Clear
 Wind from E
Wind: E 9 km/h
Temperature: 16°C
Dew Point: 13°C
Humidity: 83%
Barometer: 1014 hPa
Summary: Clear
Visibility: greater than 10 km
2019/08/24 19:30 EIDW 241930Z 08005KT CAVOK 16/13 Q1014 NOSIG
EIME - Casement (mil), Ireland
Distance from station: ENE 62km
Updated: 24/08/2019 20:00
Partly cloudy
Partly cloudy
 Wind from E
Wind: E 9 km/h
Temperature: 19°C
Dew Point: 14°C
Humidity: 73%
Barometer: 1014 hPa
Clouds: Partly cloudy
Visibility: 10 km
Cloud details: Few Clouds 3353 m
Partly cloudy 4877 m
2019/08/24 19:00 EIME 241900Z 09005KT 9999 FEW110 SCT160 19/14 Q1014
EIWF - Waterford Arpt, Ireland
Distance from station: S 111km
Updated: 24/08/2019 20:30
Mostly cloudy
Mostly cloudy
 Wind from SSW
Wind: SSW 2 km/h
Temperature: 16°C
Dew Point: 16°C
Humidity: 100%
Barometer: 1014 hPa
Clouds: Mostly cloudy
Visibility: 10 km
Cloud details: Few Clouds 122 m
Mostly cloudy 427 m
2019/08/24 19:30 EIWF 241930Z 21001KT 9999 FEW004 BKN014 16/16 Q1014
 
EINN - Shannon Airport, Ireland
Distance from station: WSW 117km
Updated: 24/08/2019 20:30
Mostly cloudy
Mostly cloudy
 Wind from W
Wind: W 13 km/h
Temperature: 16°C
Dew Point: 14°C
Humidity: 88%
Barometer: 1015 hPa
Clouds: Mostly cloudy
Visibility: 10 km
Cloud details: Few Clouds 396 m
Mostly cloudy 945 m
2019/08/24 19:30 EINN 241930Z 27007KT 9999 FEW013 BKN031 16/14 Q1015 NOSIG
EIKN - Connaught Apt, Ireland
Distance from station: NW 127km
Updated: 24/08/2019 19:00
NOT Current
Mostly cloudy
Mostly cloudy
 Wind from NW
Wind: NW 9 km/h
Temperature: 17°C
Dew Point: 15°C
Humidity: 88%
Barometer: 1014 hPa
Clouds: Mostly cloudy
Visibility: 10 km
Cloud details: Few Clouds 366 m
Partly cloudy 1006 m
Mostly cloudy 1829 m
2019/08/24 18:00 EIKN 241800Z 31005KT 9999 FEW012 SCT033 BKN060 17/15 Q1014 NOSIG
EISG - Sligo Arpt, Ireland
Distance from station: NNW 148km
Updated: 24/08/2019 20:00
Mostly cloudy
Mostly cloudy
 Wind from NW
Wind: NW 11 km/h
Temperature: 17°C
Dew Point: 17°C
Humidity: 100%
Barometer: 1014 hPa
Clouds: Mostly cloudy
Visibility: 10 km
Cloud details: Mostly cloudy 732 m
2019/08/24 19:00 EISG 241900Z 31006KT 9999 BKN024 17/17 Q1014
 
EICK - Cork Arpt/Corcai, Ireland
Distance from station: SSW 165km
Updated: 24/08/2019 20:30
Mostly cloudy
Mostly cloudy
 Wind from W
Wind: W 9 km/h
Temperature: 18°C
Dew Point: 16°C
Humidity: 88%
Barometer: 1014 hPa
Clouds: Mostly cloudy
Visibility: 10 km
Cloud details: Partly cloudy 335 m
Partly cloudy 610 m
Mostly cloudy 1524 m
2019/08/24 19:30 EICK 241930Z 28005KT 250V330 9999 SCT011 SCT020 BKN050 18/16 Q1014 NOSIG
EGAA - Belfast/Aldergro, United Kingdom
Distance from station: NNE 179km
Updated: 24/08/2019 20:20
Clear
Clear
 Wind from E
Wind: E 13 km/h
Temperature: 18°C
Dew Point: 13°C
Humidity: 73%
Barometer: 1015 hPa
Summary: Clear
Visibility: greater than 10 km
2019/08/24 19:20 EGAA 241920Z 09007KT CAVOK 18/13 Q1015
EIKY - Kerry Arpt, Ireland
Distance from station: SW 182km
Updated: 24/08/2019 20:30
Mostly cloudy
Mostly cloudy
 Wind from NW
Wind: NW 7 km/h
Temperature: 15°C
Dew Point: 14°C
Humidity: 94%
Barometer: 1015 hPa
Clouds: Mostly cloudy
Visibility: 10 km
Cloud details: Partly cloudy 122 m
Mostly cloudy 274 m
Mostly cloudy 610 m
2019/08/24 19:30 EIKY 241930Z 32004KT 270V030 9999 SCT004 BKN009 BKN020 15/14 Q1015
 
EGAC - Belfast Harbour, United Kingdom
Distance from station: NNE 188km
Updated: 24/08/2019 20:20
Clear
Clear
 Wind from varies
Wind: varies 4 km/h
Temperature: 18°C
Dew Point: 13°C
Humidity: 73%
Barometer: 1015 hPa
Clouds: Clear
Visibility: 10 km
2019/08/24 19:20 EGAC 241920Z AUTO VRB02KT 9999 NCD 18/13 Q1015
EGOV - Valley Raf, United Kingdom
Distance from station: E 188km
Updated: 24/08/2019 19:50
Clear
Clear
 Wind from E
Wind: E 13 km/h
Temperature: 21°C
Dew Point: 14°C
Humidity: 64%
Barometer: 1014 hPa
Clouds: Clear
Visibility: 10 km
2019/08/24 18:50 EGOV 241850Z AUTO 08007KT 9999 NCD 21/14 Q1014
EGNS - Isle Of Man/Rona, United Kingdom
Distance from station: ENE 207km
Updated: 24/08/2019 20:20
Clear
Clear
 Wind from NE
Wind: NE 9 km/h
Temperature: 19°C
Dew Point: 14°C
Humidity: 73%
Barometer: 1015 hPa
Summary: Clear
Visibility: greater than 10 km
2019/08/24 19:20 EGNS 241920Z 04005KT 010V080 CAVOK 19/14 Q1015 NOSIG